Time;durP1;ratioP1;P1;durP2;ratioP2;P2;SDS_P1;SDS_P2;PMS_P1;PMS_P2;Temp;Humidity;BMP_temperature;BMP_pressure;BME280_temperature;BME280_humidity;BME280_pressure;Samples;Min_cycle;Max_cycle;Signal;HPM_P1;HPM_P2
2022/12/16 00:01:26;;;;;;;48.50;27.70;;;;;;;5.58;85.87;99936.66;4925569;28;20129;-77
2022/12/16 00:03:55;;;;;;;41.97;27.95;;;;;;;5.65;86.06;99956.31;4939571;28;20051;-77
2022/12/16 00:06:28;;;;;;;43.90;28.45;;;;;;;5.38;85.72;99890.03;4923817;28;20536;-77
2022/12/16 00:08:55;;;;;;;43.13;28.10;;;;;;;5.65;85.72;99937.88;4924610;28;20278;-77
2022/12/16 00:11:22;;;;;;;42.70;27.95;;;;;;;5.53;85.62;99916.00;4942900;28;20061;-78
2022/12/16 00:13:52;;;;;;;42.13;28.00;;;;;;;5.64;86.02;99928.31;4925730;28;20046;-77
2022/12/16 00:16:20;;;;;;;47.40;29.60;;;;;;;5.79;84.75;99906.00;4922180;28;20404;-79
2022/12/16 00:18:52;;;;;;;45.95;29.25;;;;;;;5.53;84.58;99876.50;4930044;28;20520;-80
2022/12/16 00:21:28;;;;;;;40.00;26.58;;;;;;;5.45;84.85;99859.63;4949530;28;20135;-80
2022/12/16 00:23:56;;;;;;;45.47;28.50;;;;;;;5.31;85.12;99837.84;4951668;28;20615;-78
2022/12/16 00:26:24;;;;;;;44.70;29.48;;;;;;;5.59;85.63;99906.78;4947162;28;20065;-78
2022/12/16 00:28:50;;;;;;;40.53;29.33;;;;;;;5.55;85.83;99897.44;4944908;28;20554;-79
2022/12/16 00:31:17;;;;;;;43.95;27.42;;;;;;;5.45;85.92;99870.16;4941808;28;20058;-79
2022/12/16 00:33:44;;;;;;;43.58;30.02;;;;;;;5.71;85.70;99903.16;4942594;28;20082;-78
2022/12/16 00:36:14;;;;;;;40.83;28.17;;;;;;;5.68;85.25;99913.09;4942651;28;20457;-80
2022/12/16 00:38:40;;;;;;;47.38;30.02;;;;;;;5.74;84.90;99920.50;4944256;28;20054;-79
2022/12/16 00:41:08;;;;;;;53.80;32.03;;;;;;;5.69;85.05;99910.34;4940711;28;20136;-80
2022/12/16 00:43:35;;;;;;;47.05;30.08;;;;;;;5.43;84.69;99845.75;4942542;28;20430;-78
2022/12/16 00:46:07;;;;;;;44.08;29.60;;;;;;;5.62;84.51;99877.56;4980922;28;20057;-79
2022/12/16 00:48:34;;;;;;;46.85;31.52;;;;;;;5.71;85.36;99913.69;4975037;28;20628;-78
2022/12/16 00:51:01;;;;;;;57.08;33.97;;;;;;;5.56;85.82;99914.91;4941148;28;20138;-80
2022/12/16 00:53:28;;;;;;;53.97;32.92;;;;;;;5.60;86.12;99923.41;4941098;28;20419;-79
2022/12/16 00:56:05;;;;;;;52.67;34.60;;;;;;;5.60;85.78;99921.59;4942074;28;20160;-81
2022/12/16 00:58:32;;;;;;;57.22;33.22;;;;;;;5.28;85.71;99880.22;4944784;28;20272;-79
2022/12/16 01:00:59;;;;;;;48.35;33.55;;;;;;;5.28;86.32;99888.13;4944234;28;20208;-81
2022/12/16 01:03:27;;;;;;;57.42;35.67;;;;;;;5.02;86.91;99857.72;4941279;28;20475;-82
2022/12/16 01:05:55;;;;;;;55.90;34.17;;;;;;;4.97;86.95;99846.72;4943052;28;20520;-80
2022/12/16 01:08:22;;;;;;;55.13;35.97;;;;;;;4.32;86.65;99735.16;4941521;28;20043;-82
2022/12/16 01:10:58;;;;;;;60.38;37.15;;;;;;;5.16;86.18;99860.13;4941878;28;20516;-80
2022/12/16 01:13:26;;;;;;;63.95;37.13;;;;;;;5.54;86.69;99944.00;4945083;28;20470;-78
2022/12/16 01:15:53;;;;;;;55.15;36.03;;;;;;;5.54;86.90;99949.25;4961926;28;20180;-79
2022/12/16 01:18:24;;;;;;;61.63;36.45;;;;;;;5.45;86.83;99941.25;4942639;28;20152;-81
2022/12/16 01:20:51;;;;;;;56.40;35.97;;;;;;;5.61;87.14;99965.41;4944612;28;20058;-79
2022/12/16 01:23:22;;;;;;;60.90;36.58;;;;;;;5.54;86.99;99959.78;4953274;28;20443;-81
2022/12/16 01:25:58;;;;;;;66.35;38.78;;;;;;;5.59;86.86;99966.50;4972176;28;20050;-81
2022/12/16 01:28:28;;;;;;;61.20;37.22;;;;;;;5.30;86.70;99916.94;4963302;28;20484;-80
2022/12/16 01:31:02;;;;;;;66.88;39.13;;;;;;;4.76;86.87;99808.00;4956549;28;20364;-80
2022/12/16 01:33:31;;;;;;;65.20;38.25;;;;;;;4.12;86.53;99715.69;4952530;28;20058;-81
2022/12/16 01:36:05;;;;;;;65.95;39.38;;;;;;;5.05;86.26;99842.56;4945225;28;20434;-81
2022/12/16 01:38:32;;;;;;;72.53;40.38;;;;;;;5.17;85.37;99858.31;4944303;28;20443;-81
2022/12/16 01:41:00;;;;;;;66.57;37.72;;;;;;;5.52;85.76;99916.09;4946167;28;20089;-80
2022/12/16 01:43:33;;;;;;;64.10;38.13;;;;;;;5.53;86.08;99923.91;4947021;28;20152;-81
2022/12/16 01:46:06;;;;;;;71.25;42.70;;;;;;;5.57;86.32;99937.66;4962041;28;20096;-81
2022/12/16 01:48:43;;;;;;;61.38;38.78;;;;;;;5.60;86.29;99945.28;4956733;28;20058;-80
2022/12/16 01:51:35;;;;;;;65.72;39.55;;;;;;;5.51;87.00;99969.69;4926608;28;20051;-80
2022/12/16 01:54:11;;;;;;;63.28;39.00;;;;;;;5.64;86.96;99954.63;4926281;28;20059;-80
2022/12/16 01:57:10;;;;;;;56.05;34.92;;;;;;;5.63;85.76;99925.78;4944515;28;20049;-82
2022/12/16 01:59:40;;;;;;;57.20;36.10;;;;;;;5.63;85.57;99937.19;4941568;28;20070;-81
2022/12/16 02:02:07;;;;;;;55.78;34.97;;;;;;;5.54;86.16;99949.25;4925150;28;20065;-82
2022/12/16 02:05:19;;;;;;;54.92;35.70;;;;;;;5.44;86.78;99952.75;4926310;28;20611;-81
2022/12/16 02:07:27;;;;;;;56.72;35.45;;;;;;;5.32;86.76;99934.31;4943876;28;20082;-80
2022/12/16 02:09:54;;;;;;;49.85;32.38;;;;;;;5.28;86.44;99901.28;4925933;28;20160;-81
2022/12/16 02:13:00;;;;;;;42.47;31.95;;;;;;;5.17;85.73;99874.97;4942693;28;20216;-81
2022/12/16 02:15:57;;;;;;;45.67;30.40;;;;;;;5.37;85.38;99914.69;4926737;28;20728;-81
2022/12/16 02:18:52;;;;;;;39.42;30.05;;;;;;;4.98;85.47;99856.31;4940687;28;20061;-81
2022/12/16 02:21:38;;;;;;;43.28;28.83;;;;;;;5.34;85.49;99929.75;4942884;28;20077;-80
2022/12/16 02:24:08;;;;;;;39.60;28.80;;;;;;;4.99;85.79;99873.75;4946532;28;20050;-81
2022/12/16 02:26:57;;;;;;;43.38;28.63;;;;;;;5.40;85.81;99940.75;4946000;28;20062;-80
2022/12/16 02:29:54;;;;;;;41.53;29.10;;;;;;;5.47;85.23;99952.50;4906932;28;20115;-82
2022/12/16 02:32:23;;;;;;;40.58;27.88;;;;;;;5.41;85.66;99955.59;4965587;28;20515;-81
2022/12/16 02:35:03;;;;;;;43.70;29.02;;;;;;;5.10;85.55;99897.44;4945768;28;20168;-81
2022/12/16 02:37:55;;;;;;;38.92;27.58;;;;;;;5.32;85.80;99958.00;4962186;28;20135;-81
2022/12/16 02:40:35;;;;;;;;;;;;;;;5.26;86.79;99957.63;4948274;28;20054;-81
2022/12/16 02:43:14;;;;;;;41.38;27.02;;;;;;;5.22;86.83;99949.13;4946068;28;19925;-81
2022/12/16 02:45:43;;;;;;;35.80;25.73;;;;;;;5.35;86.38;99955.09;4960033;28;20191;-82
2022/12/16 02:48:18;;;;;;;33.42;24.95;;;;;;;5.20;86.03;99945.78;4961343;28;20057;-81
2022/12/16 02:50:49;;;;;;;29.75;23.95;;;;;;;5.32;85.66;99960.63;4925643;28;20454;-81
2022/12/16 02:53:19;;;;;;;31.50;24.95;;;;;;;5.24;85.19;99925.31;4941245;28;20213;-81
2022/12/16 02:55:54;;;;;;;29.55;23.65;;;;;;;5.42;84.72;99988.88;4922268;28;20059;-80
2022/12/16 02:58:24;;;;;;;31.15;23.25;;;;;;;5.31;84.91;99990.50;4924002;28;20051;-80
2022/12/16 03:01:19;;;;;;;31.10;22.88;;;;;;;5.29;85.52;99988.94;4941081;28;20055;-80
2022/12/16 03:04:11;;;;;;;30.42;22.98;;;;;;;5.28;85.54;99984.66;4941572;28;20054;-81
2022/12/16 03:06:41;;;;;;;30.17;21.30;;;;;;;5.32;85.49;99955.34;4924355;28;20242;-80
2022/12/16 03:09:12;;;;;;;27.20;21.92;;;;;;;4.87;84.70;99881.63;4922813;28;20626;-81
2022/12/16 03:11:42;;;;;;;32.70;21.40;;;;;;;5.22;84.78;99958.78;4924381;28;20066;-81
2022/12/16 03:14:14;;;;;;;29.27;21.33;;;;;;;5.30;85.09;99966.97;4940303;28;20050;-79
2022/12/16 03:16:44;;;;;;;25.00;20.80;;;;;;;5.26;85.08;99961.06;4944537;28;20077;-79
2022/12/16 03:19:13;;;;;;;26.40;21.15;;;;;;;4.10;84.81;99785.88;4960010;28;20466;-80
2022/12/16 03:22:16;;;;;;;28.05;21.02;;;;;;;5.24;85.35;99984.06;4943858;28;20061;-82
2022/12/16 03:24:42;;;;;;;28.17;19.88;;;;;;;4.73;85.55;99905.50;4942947;28;20861;-80
2022/12/16 03:27:41;;;;;;;25.20;19.55;;;;;;;4.69;85.03;99898.81;4940909;28;20061;-80
2022/12/16 03:30:31;;;;;;;26.67;21.02;;;;;;;5.06;85.45;99932.84;4944245;28;20046;-80
2022/12/16 03:33:29;;;;;;;31.10;21.25;;;;;;;5.35;85.29;99973.53;4948216;28;20064;-80
2022/12/16 03:36:09;;;;;;;23.67;18.75;;;;;;;5.46;84.46;99970.09;4947726;28;20598;-80
2022/12/16 03:38:37;;;;;;;27.75;20.02;;;;;;;5.24;84.18;99941.09;4946373;28;20390;-80
2022/12/16 03:41:06;;;;;;;27.40;19.70;;;;;;;4.27;84.24;99793.31;4946436;28;20058;-80
2022/12/16 03:43:33;;;;;;;26.05;18.52;;;;;;;5.21;84.48;99965.03;4945435;28;20050;-79
2022/12/16 03:46:05;;;;;;;23.42;17.27;;;;;;;5.26;83.88;99954.97;4964209;28;20061;-80
2022/12/16 03:48:44;;;;;;;23.23;17.17;;;;;;;5.24;84.16;99947.22;4977050;28;20594;-79
2022/12/16 03:51:10;;;;;;;20.98;17.13;;;;;;;5.38;84.08;99959.28;4942286;28;20559;-80
2022/12/16 03:53:55;;;;;;;23.55;17.85;;;;;;;5.30;84.05;99956.44;4945663;28;20128;-81
2022/12/16 03:56:24;;;;;;;23.55;17.33;;;;;;;4.76;83.90;99857.97;4947767;28;20186;-81
2022/12/16 03:58:51;;;;;;;22.90;16.98;;;;;;;5.17;84.60;99943.38;4973513;28;20469;-82
2022/12/16 04:01:26;;;;;;;23.85;16.83;;;;;;;4.00;84.63;99754.22;4982792;28;20286;-81
2022/12/16 04:03:54;;;;;;;20.35;16.27;;;;;;;5.30;84.61;99930.13;4953507;28;20058;-78
2022/12/16 04:06:21;;;;;;;21.75;15.98;;;;;;;5.27;84.14;99930.34;4941417;28;20058;-79
2022/12/16 04:08:50;;;;;;;21.73;14.90;;;;;;;5.37;84.35;99956.81;4945159;28;20920;-81
2022/12/16 04:25:36;;;;;;;21.40;16.05;;;;;;;5.03;83.22;99909.41;4942240;28;20051;-79
2022/12/16 04:28:22;;;;;;;19.33;15.35;;;;;;;5.38;83.88;99961.09;4926409;28;20042;-79
2022/12/16 04:30:49;;;;;;;25.83;16.90;;;;;;;5.38;82.93;99953.19;4924768;28;20054;-78
